Time;durP1;ratioP1;P1;durP2;ratioP2;P2;SDS_P1;SDS_P2;PMS_P1;PMS_P2;Temp;Humidity;BMP_temperature;BMP_pressure;BME280_temperature;BME280_humidity;BME280_pressure;Samples;Min_cycle;Max_cycle;Signal;HPM_P1;HPM_P2
2023/02/21 02:15:25;;;;;;;0.00;0.00;;;;;;;9.61;100.00;100408.38;4990076;28;20034;-70
2023/02/21 02:18:18;;;;;;;0.10;0.10;;;;;;;9.65;100.00;100408.38;5006423;28;20026;-70
2023/02/21 02:21:01;;;;;;;;;;;;;;;9.64;100.00;100416.28;5019416;28;20405;-70
2023/02/21 02:23:51;;;;;;;0.10;0.10;;;;;;;9.69;100.00;100392.53;5023564;28;19913;-70
2023/02/21 02:26:22;;;;;;;0.20;0.20;;;;;;;9.70;100.00;100387.28;5019523;28;20145;-70
2023/02/21 02:29:24;;;;;;;0.10;0.10;;;;;;;9.79;100.00;100386.34;5020546;28;20097;-70
2023/02/21 02:32:22;;;;;;;0.10;0.10;;;;;;;9.83;100.00;100385.47;5019037;28;20037;-70
2023/02/21 02:35:03;;;;;;;0.10;0.10;;;;;;;9.81;100.00;100389.84;4990105;28;20046;-70
2023/02/21 02:37:48;;;;;;;0.10;0.10;;;;;;;9.79;100.00;100381.06;5019756;28;20034;-70
2023/02/21 02:40:34;;;;;;;0.00;0.00;;;;;;;9.91;100.00;100382.78;5019422;28;20046;-70
2023/02/21 02:43:13;;;;;;;0.10;0.10;;;;;;;9.90;100.00;100373.97;5005361;28;20030;-70
2023/02/21 02:46:04;;;;;;;0.00;0.00;;;;;;;9.87;100.00;100360.81;5000116;28;20037;-70
2023/02/21 02:48:35;;;;;;;0.00;0.00;;;;;;;9.92;100.00;100358.16;5000629;28;20055;-70
2023/02/21 02:51:06;;;;;;;0.00;0.00;;;;;;;9.88;100.00;100365.22;5001892;28;20030;-70
2023/02/21 02:53:32;;;;;;;0.00;0.00;;;;;;;9.98;100.00;100372.19;5003203;28;20066;-70
2023/02/21 02:56:02;;;;;;;0.00;0.00;;;;;;;9.96;100.00;100358.13;5000953;28;20033;-70
2023/02/21 02:58:37;;;;;;;0.00;0.00;;;;;;;10.05;100.00;100358.06;5004657;28;20115;-70
2023/02/21 03:01:36;;;;;;;0.00;0.00;;;;;;;10.00;100.00;100365.13;5014945;28;20026;-70
2023/02/21 03:04:27;;;;;;;0.08;0.08;;;;;;;10.03;100.00;100367.78;5018859;28;20045;-70
2023/02/21 03:07:04;;;;;;;0.10;0.10;;;;;;;10.03;100.00;100365.13;5015753;28;20030;-70
2023/02/21 03:09:49;;;;;;;0.10;0.10;;;;;;;10.02;100.00;100357.22;5016694;28;20030;-70
2023/02/21 03:12:24;;;;;;;0.10;0.10;;;;;;;10.09;100.00;100388.81;5000190;28;20034;-70
2023/02/21 03:14:58;;;;;;;0.10;0.10;;;;;;;10.06;99.83;100351.03;5004632;28;20031;-70
2023/02/21 03:17:27;;;;;;;0.10;0.10;;;;;;;10.06;99.59;100353.66;5015537;28;20030;-70
2023/02/21 03:19:55;;;;;;;0.10;0.10;;;;;;;10.08;99.67;100358.03;5000421;28;20042;-70
2023/02/21 03:22:25;;;;;;;0.10;0.10;;;;;;;10.13;99.32;100362.41;5005421;28;20416;-70
2023/02/21 03:24:53;;;;;;;0.10;0.10;;;;;;;10.17;99.45;100364.16;5002023;28;20551;-70
2023/02/21 03:27:21;;;;;;;0.10;0.10;;;;;;;10.15;99.60;100352.75;5016461;28;20057;-70
2023/02/21 03:30:01;;;;;;;0.10;0.10;;;;;;;10.18;99.24;100356.22;5016143;28;20042;-70
2023/02/21 03:32:37;;;;;;;0.10;0.10;;;;;;;10.12;99.47;100347.50;5001785;28;20124;-70
2023/02/21 03:35:05;;;;;;;0.10;0.10;;;;;;;10.14;99.65;100357.16;5002635;28;20101;-70
2023/02/21 03:37:37;;;;;;;0.00;0.00;;;;;;;10.19;99.39;100359.72;5016591;28;20034;-70
2023/02/21 03:40:08;;;;;;;;;;;;;;;10.18;99.46;100339.53;4999270;28;20527;-70
2023/02/21 03:42:33;;;;;;;0.10;0.10;;;;;;;10.16;99.18;100362.38;5007109;28;19921;-70
2023/02/21 03:44:59;;;;;;;0.10;0.10;;;;;;;10.23;98.68;100359.69;5003865;28;20049;-70
2023/02/21 03:47:25;;;;;;;0.00;0.00;;;;;;;10.25;98.65;100342.09;5003524;28;20038;-70
2023/02/21 03:49:51;;;;;;;0.00;0.00;;;;;;;10.23;98.65;100335.97;5018567;28;20034;-70
2023/02/21 03:52:16;;;;;;;0.10;0.10;;;;;;;10.19;99.33;100347.44;5015599;28;20084;-70
2023/02/21 03:54:42;;;;;;;0.00;0.00;;;;;;;10.19;99.15;100339.53;5018105;28;20040;-70
2023/02/21 03:57:13;;;;;;;0.00;0.00;;;;;;;10.23;98.88;100337.72;5018118;28;20120;-70
2023/02/21 03:59:44;;;;;;;0.05;0.05;;;;;;;10.24;98.72;100344.75;5016888;28;20030;-70
2023/02/21 04:02:09;;;;;;;0.10;0.10;;;;;;;10.19;98.67;100351.81;5018855;28;20049;-70
2023/02/21 04:04:35;;;;;;;0.00;0.00;;;;;;;10.26;98.78;100324.50;4999978;28;20056;-70
2023/02/21 04:07:10;;;;;;;0.00;0.00;;;;;;;10.24;99.01;100323.66;5001698;28;20033;-70
2023/02/21 04:09:37;;;;;;;0.00;0.00;;;;;;;10.23;99.40;100332.47;4998621;28;20037;-70
2023/02/21 04:12:04;;;;;;;0.10;0.10;;;;;;;10.24;100.00;100331.56;5009259;28;20521;-70
2023/02/21 04:14:31;;;;;;;0.00;0.00;;;;;;;10.24;100.00;100353.56;4999281;28;20034;-70
2023/02/21 04:16:57;;;;;;;0.00;0.00;;;;;;;10.22;99.93;100343.91;5022698;28;20037;-70
2023/02/21 04:19:22;;;;;;;0.00;0.00;;;;;;;10.17;100.00;100350.97;5017663;28;20030;-71
2023/02/21 04:21:48;;;;;;;0.00;0.00;;;;;;;10.16;100.00;100357.13;4999558;28;20034;-70
2023/02/21 04:24:13;;;;;;;0.00;0.00;;;;;;;10.20;100.00;100341.25;5001990;28;20031;-72
2023/02/21 04:26:39;;;;;;;0.00;0.00;;;;;;;10.28;99.31;100354.44;5016849;28;20088;-72
2023/02/21 04:29:05;;;;;;;0.00;0.00;;;;;;;10.30;99.67;100342.13;5016202;28;20027;-72
2023/02/21 04:31:31;;;;;;;0.00;0.00;;;;;;;10.29;99.69;100350.91;5019434;28;20117;-72
2023/02/21 04:34:00;;;;;;;0.03;0.03;;;;;;;10.28;100.00;100354.44;5016657;28;20053;-72
2023/02/21 04:36:25;;;;;;;0.08;0.08;;;;;;;10.23;100.00;100343.00;5016443;28;20035;-71
2023/02/21 04:38:52;;;;;;;0.00;0.00;;;;;;;10.21;100.00;100347.41;4999769;28;20121;-71
2023/02/21 04:41:17;;;;;;;0.10;0.10;;;;;;;10.14;100.00;100345.69;5001513;28;20508;-71
2023/02/21 04:43:43;;;;;;;0.00;0.00;;;;;;;10.12;100.00;100343.09;5016047;28;20034;-72
2023/02/21 04:46:10;;;;;;;0.10;0.10;;;;;;;10.11;100.00;100346.59;5016610;28;20038;-71
2023/02/21 04:48:35;;;;;;;0.00;0.00;;;;;;;10.14;100.00;100353.59;5002021;28;20496;-72
2023/02/21 04:51:01;;;;;;;0.00;0.00;;;;;;;10.08;100.00;100341.34;5000050;28;20034;-72
2023/02/21 04:53:27;;;;;;;0.00;0.00;;;;;;;10.12;100.00;100331.69;5003275;28;20511;-72
2023/02/21 04:55:52;;;;;;;0.00;0.00;;;;;;;10.08;100.00;100352.75;4999516;28;20106;-72
2023/02/21 04:58:17;;;;;;;0.00;0.00;;;;;;;10.08;100.00;100349.25;5005188;28;20508;-72
2023/02/21 05:00:43;;;;;;;0.00;0.00;;;;;;;10.04;100.00;100351.06;4999976;28;20033;-72
2023/02/21 05:03:08;;;;;;;0.10;0.10;;;;;;;10.05;100.00;100358.06;5005924;28;20029;-72
2023/02/21 05:05:33;;;;;;;0.00;0.00;;;;;;;10.04;100.00;100350.19;5004831;28;20045;-72
2023/02/21 05:07:59;;;;;;;0.10;0.10;;;;;;;10.08;100.00;100352.75;5002665;28;20034;-72
2023/02/21 05:10:24;;;;;;;0.00;0.00;;;;;;;9.96;100.00;100341.47;5000325;28;20069;-72
2023/02/21 05:12:49;;;;;;;0.00;0.00;;;;;;;9.97;100.00;100343.19;5009917;28;20034;-72
2023/02/21 05:15:15;;;;;;;0.00;0.00;;;;;;;9.98;100.00;100345.84;5002038;28;20026;-72
2023/02/21 05:17:40;;;;;;;0.00;0.00;;;;;;;9.97;100.00;100359.88;5008314;28;20059;-72
2023/02/21 05:20:10;;;;;;;0.00;0.00;;;;;;;9.84;100.00;100345.03;4998043;28;20049;-71
2023/02/21 05:22:39;;;;;;;0.00;0.00;;;;;;;9.88;100.00;100344.13;5005704;28;20038;-71
2023/02/21 05:25:19;;;;;;;0.00;0.00;;;;;;;9.86;100.00;100357.31;5007791;28;20046;-71
2023/02/21 05:27:45;;;;;;;0.00;0.00;;;;;;;9.85;100.00;100354.69;5009414;28;20439;-72
2023/02/21 05:30:11;;;;;;;0.00;0.00;;;;;;;9.85;100.00;100345.03;5020058;28;20092;-72
2023/02/21 05:32:37;;;;;;;0.00;0.00;;;;;;;9.85;100.00;100354.69;5011657;28;20034;-72
2023/02/21 05:35:02;;;;;;;0.00;0.00;;;;;;;9.83;100.00;100367.88;5011415;28;20034;-72
2023/02/21 05:37:28;;;;;;;0.00;0.00;;;;;;;9.82;100.00;100375.78;5009467;28;20041;-72
2023/02/21 05:39:53;;;;;;;0.10;0.10;;;;;;;9.79;100.00;100371.41;5007572;28;20036;-71
2023/02/21 05:42:18;;;;;;;0.00;0.00;;;;;;;9.76;100.00;100383.72;5005280;28;20128;-71
2023/02/21 05:44:45;;;;;;;0.00;0.00;;;;;;;9.78;100.00;100381.97;5007599;28;20057;-72
2023/02/21 05:47:11;;;;;;;0.00;0.00;;;;;;;9.78;100.00;100381.97;5005600;28;20096;-71
2023/02/21 05:49:36;;;;;;;0.10;0.10;;;;;;;9.71;100.00;100403.97;5009927;28;20042;-72
2023/02/21 05:52:04;;;;;;;0.00;0.00;;;;;;;9.73;100.00;100379.34;5007255;28;20087;-69
2023/02/21 05:54:29;;;;;;;0.00;0.00;;;;;;;9.70;100.00;100375.88;5006242;28;20038;-70
2023/02/21 05:56:54;;;;;;;8.80;3.72;;;;;;;9.76;100.00;100375.81;5011359;28;20048;-69
2023/02/21 05:59:20;;;;;;;8.68;4.63;;;;;;;9.74;100.00;100399.53;5009029;28;20404;-69
2023/02/21 06:01:49;;;;;;;9.98;4.28;;;;;;;9.72;100.00;100390.78;5011752;28;20489;-69
2023/02/21 06:04:16;;;;;;;10.63;6.05;;;;;;;9.64;100.00;100384.66;5006614;28;20080;-69
2023/02/21 06:06:42;;;;;;;13.55;6.20;;;;;;;9.56;100.00;100392.63;5012148;28;20038;-69
2023/02/21 06:09:08;;;;;;;10.00;5.72;;;;;;;9.55;100.00;100400.53;5011580;28;20076;-69
2023/02/21 06:11:36;;;;;;;13.52;6.43;;;;;;;9.48;100.00;100390.88;5009987;28;20030;-69
2023/02/21 06:14:03;;;;;;;15.95;6.85;;;;;;;9.41;100.00;100396.19;5006310;28;20072;-69
2023/02/21 06:16:36;;;;;;;12.63;6.60;;;;;;;9.42;100.00;100391.78;5007077;28;20042;-69
2023/02/21 06:19:03;;;;;;;13.25;6.57;;;;;;;9.42;100.00;100391.78;5004591;28;20030;-69
2023/02/21 06:21:28;;;;;;;10.60;5.93;;;;;;;9.37;100.00;100391.78;5011208;28;20125;-69
2023/02/21 06:23:54;;;;;;;13.23;7.00;;;;;;;9.34;100.00;100407.63;5003473;28;20036;-69
2023/02/21 06:26:20;;;;;;;10.88;6.25;;;;;;;9.37;100.00;100415.50;5001873;28;20038;-69
2023/02/21 06:28:46;;;;;;;12.77;6.00;;;;;;;9.35;100.00;100408.47;5001782;28;20257;-69
2023/02/21 06:31:12;;;;;;;12.48;6.75;;;;;;;9.33;100.00;100426.94;5001781;28;20814;-69
2023/02/21 06:33:38;;;;;;;13.32;7.32;;;;;;;9.31;100.00;100418.16;5065732;23;20062;-76
2023/02/21 06:36:11;;;;;;;11.60;6.40;;;;;;;9.37;100.00;100426.03;5022013;28;20033;-76
2023/02/21 06:38:36;;;;;;;13.50;6.70;;;;;;;9.32;100.00;100427.81;5018900;28;20026;-75
2023/02/21 06:41:08;;;;;;;14.00;7.10;;;;;;;9.23;100.00;100421.72;5023262;28;20550;-75
2023/02/21 06:43:38;;;;;;;13.30;7.25;;;;;;;9.10;100.00;100437.53;5024230;28;20487;-75
2023/02/21 06:46:03;;;;;;;12.57;6.28;;;;;;;9.05;100.00;100431.38;5008347;28;20030;-75
2023/02/21 06:48:29;;;;;;;14.23;7.13;;;;;;;8.98;100.00;100441.03;5020183;28;20034;-76
2023/02/21 06:50:54;;;;;;;12.35;6.15;;;;;;;8.96;100.00;100437.53;5003225;28;20053;-75
2023/02/21 06:53:20;;;;;;;12.18;6.28;;;;;;;8.88;100.00;100441.94;5017953;28;20030;-75
2023/02/21 06:55:45;;;;;;;16.92;7.78;;;;;;;8.85;100.00;100451.56;5023695;28;20556;-76
2023/02/21 06:58:10;;;;;;;15.65;6.88;;;;;;;8.84;100.00;100463.00;5024271;28;20400;-75
2023/02/21 07:00:36;;;;;;;15.13;6.78;;;;;;;8.78;100.00;100462.13;5006201;28;20044;-75
2023/02/21 07:03:01;;;;;;;14.02;6.25;;;;;;;8.77;100.00;100460.34;5021065;28;20034;-75
2023/02/21 07:05:27;;;;;;;16.50;6.40;;;;;;;8.76;100.00;100460.34;5020542;28;20103;-75
2023/02/21 07:07:53;;;;;;;11.55;6.35;;;;;;;8.78;100.00;100466.50;5023053;28;20037;-75
2023/02/21 07:10:18;;;;;;;13.18;7.43;;;;;;;8.84;100.00;100465.63;5020572;28;20059;-75
2023/02/21 07:12:44;;;;;;;12.55;6.40;;;;;;;8.85;100.00;100467.38;5022922;28;20090;-75
2023/02/21 07:15:09;;;;;;;14.07;6.95;;;;;;;8.88;100.00;100472.63;5022769;28;20037;-75
2023/02/21 07:17:34;;;;;;;12.30;5.97;;;;;;;8.89;100.00;100466.50;5022012;28;20051;-75
2023/02/21 07:20:00;;;;;;;13.20;6.32;;;;;;;8.94;100.00;100467.38;5021187;28;20041;-75
2023/02/21 07:22:25;;;;;;;13.75;5.75;;;;;;;9.02;100.00;100465.63;5021939;28;20033;-75
2023/02/21 07:24:55;;;;;;;16.63;7.40;;;;;;;9.08;100.00;100478.75;5026134;28;20044;-76
2023/02/21 07:27:22;;;;;;;11.57;6.43;;;;;;;9.13;100.00;100474.38;5020926;28;20041;-75
2023/02/21 07:29:49;;;;;;;11.93;6.45;;;;;;;9.11;100.00;100473.50;5022329;28;20036;-75
2023/02/21 07:32:15;;;;;;;12.88;6.65;;;;;;;9.15;100.00;100466.47;5020875;28;20120;-75
2023/02/21 07:34:40;;;;;;;13.20;6.35;;;;;;;9.13;100.00;100455.06;5022804;28;20033;-75
2023/02/21 07:37:06;;;;;;;11.23;6.10;;;;;;;9.17;100.00;100460.34;5019665;28;20029;-75
2023/02/21 07:39:31;;;;;;;12.77;6.18;;;;;;;9.23;100.00;100464.72;5023675;28;20515;-75
2023/02/21 07:41:56;;;;;;;10.45;5.88;;;;;;;9.25;100.00;100462.97;5022893;28;20120;-76
2023/02/21 07:44:28;;;;;;;11.82;6.22;;;;;;;9.34;100.00;100477.84;4999780;28;20034;-75
2023/02/21 07:46:55;;;;;;;11.88;6.50;;;;;;;9.33;100.00;100489.28;5004917;28;20092;-75
2023/02/21 07:49:20;;;;;;;11.07;6.38;;;;;;;9.30;100.00;100486.63;5022789;28;20037;-75
2023/02/21 07:51:45;;;;;;;14.45;6.85;;;;;;;9.33;100.00;100484.00;5023394;28;20082;-76
2023/02/21 07:54:11;;;;;;;11.02;6.13;;;;;;;9.40;100.00;100491.00;5019914;28;20038;-76
2023/02/21 07:56:45;;;;;;;12.75;6.25;;;;;;;9.34;100.00;100497.16;5016853;28;20077;-75
2023/02/21 07:59:10;;;;;;;14.77;7.28;;;;;;;9.35;100.00;100500.66;4998253;28;20684;-75
2023/02/21 08:01:35;;;;;;;15.07;7.60;;;;;;;9.40;100.00;100510.31;5018634;28;20034;-75
2023/02/21 08:04:01;;;;;;;15.95;6.35;;;;;;;9.42;100.00;100515.59;5020955;28;20040;-75
2023/02/21 08:06:26;;;;;;;12.85;6.50;;;;;;;9.41;100.00;100501.53;5003487;28;20132;-76
2023/02/21 08:08:51;;;;;;;12.48;6.97;;;;;;;9.37;100.00;100510.31;5019536;28;20034;-75
2023/02/21 08:11:17;;;;;;;14.57;6.57;;;;;;;9.53;100.00;100505.91;5017947;28;20030;-75
2023/02/21 08:13:42;;;;;;;12.57;6.65;;;;;;;9.51;100.00;100520.84;5019543;28;20060;-75
2023/02/21 08:16:08;;;;;;;13.13;6.43;;;;;;;9.53;100.00;100511.16;5019591;28;20083;-75
2023/02/21 08:18:33;;;;;;;13.65;7.28;;;;;;;9.49;100.00;100504.16;5021618;28;20191;-75
2023/02/21 08:20:58;;;;;;;14.55;8.00;;;;;;;9.57;100.00;100512.94;5018804;28;20068;-75
2023/02/21 08:23:23;;;;;;;15.77;7.25;;;;;;;9.54;100.00;100510.31;5010295;28;20046;-75
2023/02/21 08:25:49;;;;;;;13.18;6.60;;;;;;;9.50;100.00;100532.25;5019401;28;20100;-75
2023/02/21 08:28:15;;;;;;;12.93;7.22;;;;;;;9.51;100.00;100526.13;5018993;28;20488;-75
2023/02/21 08:30:41;;;;;;;13.40;6.50;;;;;;;9.55;100.00;100525.22;5019873;28;20061;-75
2023/02/21 08:33:07;;;;;;;12.77;6.40;;;;;;;9.62;100.00;100524.34;5018418;28;20057;-75
2023/02/21 08:35:33;;;;;;;14.90;8.35;;;;;;;9.62;100.00;100526.09;5021904;28;20030;-76
2023/02/21 08:38:01;;;;;;;13.40;7.97;;;;;;;9.69;100.00;100527.81;5022924;28;20079;-75
2023/02/21 08:40:28;;;;;;;19.52;7.70;;;;;;;9.75;100.00;100526.94;5015572;28;20048;-75
2023/02/21 08:42:54;;;;;;;13.90;7.30;;;;;;;9.77;100.00;100540.97;5021899;28;20114;-75
2023/02/21 08:45:21;;;;;;;16.13;7.68;;;;;;;9.79;100.00;100526.03;5018713;28;20092;-75
2023/02/21 08:47:46;;;;;;;13.80;6.85;;;;;;;9.82;100.00;100531.28;5021966;28;20033;-76
2023/02/21 08:50:12;;;;;;;12.32;6.35;;;;;;;9.86;100.00;100538.31;5019387;28;20108;-76
2023/02/21 08:52:38;;;;;;;13.50;6.80;;;;;;;9.90;100.00;100529.50;5022724;28;20038;-76
2023/02/21 08:55:04;;;;;;;12.48;6.28;;;;;;;9.85;100.00;100531.28;5021597;28;20113;-75
2023/02/21 08:57:30;;;;;;;16.48;7.30;;;;;;;9.89;100.00;100533.03;5022011;28;20488;-76
2023/02/21 08:59:55;;;;;;;18.10;7.13;;;;;;;9.95;100.00;100540.03;5023092;28;20068;-75
2023/02/21 09:02:27;;;;;;;13.32;6.82;;;;;;;10.01;100.00;100529.50;5019615;28;20057;-75
2023/02/21 09:04:53;;;;;;;15.98;7.80;;;;;;;10.06;100.00;100533.88;5023967;28;20076;-76
2023/02/21 09:07:21;;;;;;;10.73;4.43;;;;;;;10.11;100.00;100541.72;5010658;28;20065;-76
2023/02/21 09:09:47;;;;;;;10.43;5.32;;;;;;;10.07;100.00;100553.19;5022818;28;20045;-75
2023/02/21 09:12:12;;;;;;;10.73;3.95;;;;;;;9.97;100.00;100540.94;5018992;28;20461;-76
2023/02/21 09:14:40;;;;;;;11.50;3.92;;;;;;;9.96;100.00;100558.50;5025443;28;20039;-75
2023/02/21 09:17:08;;;;;;;9.60;3.67;;;;;;;9.98;100.00;100540.94;5025595;28;20438;-75
2023/02/21 09:19:33;;;;;;;10.07;4.07;;;;;;;9.89;100.00;100543.59;5017418;28;20048;-75
2023/02/21 09:21:59;;;;;;;9.95;4.05;;;;;;;9.86;100.00;100551.50;5029444;28;20396;-76
2023/02/21 09:24:26;;;;;;;12.43;5.13;;;;;;;9.75;100.00;100554.19;5020857;28;20037;-76
2023/02/21 09:26:57;;;;;;;9.18;3.55;;;;;;;9.72;100.00;100546.28;5024733;28;20044;-76
2023/02/21 09:29:26;;;;;;;10.43;4.38;;;;;;;9.70;100.00;100550.66;5026535;28;20033;-75
2023/02/21 09:31:51;;;;;;;9.43;4.07;;;;;;;9.71;100.00;100556.81;5024117;28;20500;-76
2023/02/21 09:34:17;;;;;;;10.02;4.00;;;;;;;9.75;100.00;100562.09;5023952;28;20049;-75
2023/02/21 09:36:43;;;;;;;10.43;4.13;;;;;;;9.73;100.00;100578.78;5024143;28;20042;-76
2023/02/21 09:39:09;;;;;;;8.98;3.80;;;;;;;9.74;100.00;100568.22;5026211;28;20555;-75
2023/02/21 09:41:36;;;;;;;10.18;4.07;;;;;;;9.81;100.00;100563.81;5022982;28;20033;-75
2023/02/21 09:44:05;;;;;;;10.50;4.15;;;;;;;9.78;100.00;100559.44;5021173;28;20385;-76
2023/02/21 09:46:38;;;;;;;8.98;3.78;;;;;;;9.88;100.00;100562.94;5024434;28;20030;-75
2023/02/21 09:49:10;;;;;;;9.32;3.42;;;;;;;9.94;100.00;100560.25;5019561;28;20050;-75
2023/02/21 09:51:40;;;;;;;12.88;4.07;;;;;;;10.02;100.00;100568.16;5027522;28;20033;-76
2023/02/21 09:54:16;;;;;;;10.85;3.83;;;;;;;9.97;100.00;100570.78;5022090;28;20026;-76
2023/02/21 09:56:41;;;;;;;9.75;3.83;;;;;;;9.93;100.00;100555.88;5008161;28;20120;-76
2023/02/21 09:59:11;;;;;;;9.15;4.18;;;;;;;9.98;100.00;100567.31;5018753;28;20092;-76
2023/02/21 10:02:02;;;;;;;8.57;3.83;;;;;;;9.98;100.00;100569.94;5027438;28;20068;-76
2023/02/21 10:04:52;;;;;;;10.27;3.80;;;;;;;9.95;100.00;100567.28;5017121;28;20033;-75
2023/02/21 10:07:25;;;;;;;8.85;3.47;;;;;;;9.95;100.00;100572.56;5006787;28;20042;-76
2023/02/21 10:09:58;;;;;;;9.13;3.67;;;;;;;9.95;100.00;100566.41;5018688;28;20040;-76
2023/02/21 10:12:32;;;;;;;12.13;5.03;;;;;;;9.99;100.00;100569.03;5024315;28;20048;-75
2023/02/21 10:15:13;;;;;;;8.48;3.45;;;;;;;10.08;100.00;100569.00;5022287;28;20484;-75
2023/02/21 10:18:04;;;;;;;10.52;4.32;;;;;;;10.16;100.00;100576.88;5023045;28;20032;-75
2023/02/21 10:21:04;;;;;;;8.40;3.72;;;;;;;10.21;100.00;100574.22;5018942;28;20041;-75
2023/02/21 10:23:36;;;;;;;8.60;3.72;;;;;;;10.26;100.00;100583.88;5003699;28;20458;-75
2023/02/21 10:26:08;;;;;;;8.48;3.65;;;;;;;10.35;100.00;100579.47;5023125;28;20389;-76
2023/02/21 10:28:34;;;;;;;9.57;3.90;;;;;;;10.40;100.00;100589.16;5020950;28;20038;-76
2023/02/21 10:31:06;;;;;;;8.48;3.13;;;;;;;10.48;100.00;100574.16;5024616;28;20081;-75
2023/02/21 10:33:35;;;;;;;7.50;3.42;;;;;;;10.53;100.00;100575.00;5021605;28;20062;-75
2023/02/21 10:36:01;;;;;;;7.55;3.28;;;;;;;10.50;100.00;100577.63;5024224;28;20068;-76
2023/02/21 10:38:26;;;;;;;8.77;3.33;;;;;;;10.56;100.00;100575.84;5020474;28;20054;-75
2023/02/21 10:41:01;;;;;;;7.38;3.78;;;;;;;10.65;100.00;100579.31;5022183;28;20044;-76
2023/02/21 10:43:40;;;;;;;8.27;3.45;;;;;;;10.77;100.00;100581.03;5020182;28;20036;-76
2023/02/21 10:46:21;;;;;;;10.38;3.50;;;;;;;10.89;100.00;100580.94;5019378;28;20492;-75
2023/02/21 10:48:51;;;;;;;9.07;3.50;;;;;;;10.96;100.00;100587.94;5023730;28;20037;-75
2023/02/21 10:51:28;;;;;;;6.75;2.83;;;;;;;11.08;100.00;100583.44;5020712;28;20049;-75
2023/02/21 10:54:20;;;;;;;9.95;3.95;;;;;;;11.12;100.00;100583.41;5021193;28;20098;-75
2023/02/21 10:56:48;;;;;;;6.82;2.72;;;;;;;11.06;100.00;100577.31;5018567;28;20045;-76
2023/02/21 10:59:23;;;;;;;7.97;3.10;;;;;;;11.06;100.00;100577.31;5021963;28;20092;-76
2023/02/21 11:01:49;;;;;;;7.80;3.15;;;;;;;11.06;100.00;100564.13;5021071;28;20025;-76
2023/02/21 11:04:23;;;;;;;7.78;3.15;;;;;;;11.08;100.00;100567.59;5023871;28;20404;-76
2023/02/21 11:06:54;;;;;;;8.07;3.20;;;;;;;11.13;100.00;100563.16;4998056;28;20037;-76
2023/02/21 11:09:28;;;;;;;7.30;2.83;;;;;;;11.10;100.00;100576.41;5014035;28;20057;-76
2023/02/21 11:12:19;;;;;;;9.98;2.88;;;;;;;11.10;100.00;100595.75;5020996;28;20045;-76
2023/02/21 11:15:16;;;;;;;7.97;2.88;;;;;;;11.15;100.00;100574.59;5018032;28;20118;-75
2023/02/21 11:17:44;;;;;;;7.80;3.67;;;;;;;11.23;100.00;100595.66;5008061;28;20157;-75
2023/02/21 11:20:12;;;;;;;5.97;2.85;;;;;;;11.18;100.00;100582.50;5002541;28;20072;-76
2023/02/21 11:22:48;;;;;;;7.35;2.75;;;;;;;11.19;100.00;100571.06;5018555;28;20096;-76
2023/02/21 11:25:30;;;;;;;5.63;2.33;;;;;;;11.17;100.00;100567.53;5013411;28;20046;-76
2023/02/21 11:28:18;;;;;;;6.53;2.30;;;;;;;11.28;100.00;100567.44;5012746;28;20164;-77
2023/02/21 11:31:01;;;;;;;6.55;2.65;;;;;;;11.35;100.00;100559.47;5016405;28;20037;-77
2023/02/21 11:33:28;;;;;;;8.85;4.00;;;;;;;11.25;100.00;100563.06;5019037;28;20060;-76
2023/02/21 11:36:08;;;;;;;7.53;2.60;;;;;;;11.24;100.00;100560.44;5013390;28;20014;-76
2023/02/21 11:38:36;;;;;;;7.97;2.78;;;;;;;11.34;100.00;100556.81;5017190;28;20030;-77
2023/02/21 11:41:14;;;;;;;7.13;2.25;;;;;;;11.30;100.00;100560.41;5009240;28;20029;-76
2023/02/21 11:43:46;;;;;;;6.38;2.47;;;;;;;11.28;100.00;100560.41;4994504;28;20038;-76
2023/02/21 11:46:35;;;;;;;9.32;3.47;;;;;;;11.37;100.00;100570.00;5016664;28;20033;-76
2023/02/21 11:49:19;;;;;;;8.27;2.45;;;;;;;11.40;100.00;100562.94;5021855;28;20029;-76
2023/02/21 11:51:56;;;;;;;6.03;2.78;;;;;;;11.37;100.00;100552.41;5017112;28;20405;-76
2023/02/21 11:54:25;;;;;;;7.45;2.95;;;;;;;11.41;100.00;100540.91;5019900;28;20034;-76
2023/02/21 11:57:07;;;;;;;9.82;3.20;;;;;;;11.58;100.00;100545.13;5023327;28;20381;-76
2023/02/21 11:59:59;;;;;;;7.47;2.33;;;;;;;11.71;100.00;100557.38;5013420;28;20112;-77
2023/02/21 12:02:55;;;;;;;8.98;3.33;;;;;;;11.81;100.00;100532.53;5017846;28;20042;-76
2023/02/21 12:05:41;;;;;;;7.80;3.10;;;;;;;11.80;100.00;100537.88;5014245;28;20040;-76
2023/02/21 12:08:36;;;;;;;7.13;2.72;;;;;;;11.82;100.00;100529.03;5020683;28;20467;-76
2023/02/21 12:11:24;;;;;;;5.80;2.65;;;;;;;11.96;100.00;100535.97;5016667;28;20029;-76
2023/02/21 12:14:09;;;;;;;7.05;2.65;;;;;;;12.19;100.00;100528.63;5014381;28;20129;-76
2023/02/21 12:17:02;;;;;;;6.38;2.72;;;;;;;12.42;99.48;100533.59;5019644;28;20022;-76
2023/02/21 12:19:48;;;;;;;6.95;3.45;;;;;;;12.29;99.25;100529.38;5022446;28;20034;-76
2023/02/21 12:22:32;;;;;;;10.57;5.88;;;;;;;12.33;100.00;100527.56;5018245;28;20041;-76
2023/02/21 12:25:16;;;;;;;9.70;5.90;;;;;;;12.34;97.92;100511.66;5015609;28;20042;-75
2023/02/21 12:28:06;;;;;;;11.38;5.95;;;;;;;12.48;97.83;100514.13;5002047;28;20072;-76
2023/02/21 12:30:43;;;;;;;10.10;5.57;;;;;;;12.40;97.54;100538.03;5021257;28;20045;-76
2023/02/21 12:33:33;;;;;;;10.65;5.30;;;;;;;12.39;96.73;100516.88;5023039;28;20095;-75
2023/02/21 12:36:11;;;;;;;10.52;5.78;;;;;;;12.35;97.28;100509.91;5021131;28;20072;-76
2023/02/21 12:38:53;;;;;;;9.80;5.50;;;;;;;12.32;97.17;100513.47;5055698;23;20054;-77
2023/02/21 12:41:58;;;;;;;9.88;5.22;;;;;;;12.20;96.10;100530.34;5043862;28;20033;-77
2023/02/21 12:44:38;;;;;;;10.18;5.50;;;;;;;12.12;96.86;100516.34;5044001;28;20548;-77
2023/02/21 12:47:19;;;;;;;8.93;5.63;;;;;;;12.11;97.57;100501.38;5043798;28;20144;-78
2023/02/21 12:49:59;;;;;;;9.50;4.68;;;;;;;12.00;97.08;100503.31;5058915;28;20124;-77
2023/02/21 12:52:28;;;;;;;10.82;5.03;;;;;;;11.88;98.99;100501.66;5063857;28;20505;-77
2023/02/21 12:55:19;;;;;;;10.35;4.50;;;;;;;11.92;97.65;100494.56;5059694;28;20542;-77
2023/02/21 12:57:54;;;;;;;9.00;4.55;;;;;;;11.93;97.86;100514.84;5044478;28;20709;-77
2023/02/21 13:00:21;;;;;;;10.50;6.10;;;;;;;11.95;97.88;100510.41;5055363;28;20045;-77
2023/02/21 13:03:16;;;;;;;7.70;4.43;;;;;;;12.08;97.96;100533.19;5061837;28;20537;-77
2023/02/21 13:05:54;;;;;;;9.05;5.20;;;;;;;12.02;97.50;100504.13;5058517;28;20039;-77
2023/02/21 13:08:35;;;;;;;10.85;5.28;;;;;;;12.04;96.93;100503.22;5062455;28;20033;-77
2023/02/21 13:11:24;;;;;;;10.80;4.85;;;;;;;12.01;97.73;100503.25;5059490;28;20041;-77
2023/02/21 13:13:50;;;;;;;8.52;4.85;;;;;;;12.00;98.22;100516.53;5058734;28;20064;-77
2023/02/21 13:16:17;;;;;;;10.90;5.05;;;;;;;11.95;98.41;100524.50;5062245;28;20024;-77
2023/02/21 13:18:58;;;;;;;10.00;5.00;;;;;;;11.98;98.91;100505.09;5063090;28;20098;-78
2023/02/21 13:21:40;;;;;;;8.63;5.32;;;;;;;12.05;98.13;100504.09;5062920;28;20040;-77
2023/02/21 13:24:31;;;;;;;8.23;4.55;;;;;;;12.07;98.04;100500.53;5061379;28;20079;-77
2023/02/21 13:27:15;;;;;;;10.48;5.25;;;;;;;12.09;98.46;100497.88;5056579;28;20038;-77
2023/02/21 13:29:41;;;;;;;8.00;5.22;;;;;;;12.23;97.43;100503.84;5058418;28;20037;-77
2023/02/21 13:32:10;;;;;;;10.05;5.63;;;;;;;12.21;96.90;100495.09;5061780;28;20094;-77
2023/02/21 13:34:39;;;;;;;9.68;5.18;;;;;;;12.37;97.47;100500.16;5061375;28;20063;-76
2023/02/21 13:37:07;;;;;;;10.48;5.95;;;;;;;12.45;95.78;100495.63;5061185;28;20048;-77
2023/02/21 13:39:36;;;;;;;11.93;6.00;;;;;;;12.49;95.13;100489.38;5043369;28;20040;-77
2023/02/21 13:42:16;;;;;;;10.52;4.95;;;;;;;12.54;93.96;100489.31;5060911;28;20036;-77
2023/02/21 13:44:46;;;;;;;10.50;5.70;;;;;;;12.42;94.15;100491.25;5052981;28;20041;-77
2023/02/21 13:47:14;;;;;;;10.18;5.22;;;;;;;12.35;94.42;100499.31;5058150;28;20487;-77
2023/02/21 13:49:54;;;;;;;9.82;5.25;;;;;;;12.35;94.79;100507.25;5058782;28;20396;-77
2023/02/21 13:52:22;;;;;;;9.27;4.97;;;;;;;12.37;93.96;100489.59;5059139;28;20459;-77
2023/02/21 13:55:16;;;;;;;10.43;4.85;;;;;;;12.32;93.92;100499.34;5038954;28;20632;-77